sensor_id;sensor_type;location;lat;lon;timestamp;P1;durP1;ratioP1;P2;durP2;ratioP2
60436;SDS011;46289;51.992;4.498;2022-11-20T00:02:20;15.77;;;7.65;;
60436;SDS011;46289;51.992;4.498;2022-11-20T00:04:50;12.57;;;7.43;;
60436;SDS011;46289;51.992;4.498;2022-11-20T00:07:20;17.20;;;9.15;;
60436;SDS011;46289;51.992;4.498;2022-11-20T00:09:49;19.90;;;8.48;;
60436;SDS011;46289;51.992;4.498;2022-11-20T00:12:19;17.85;;;8.75;;
60436;SDS011;46289;51.992;4.498;2022-11-20T00:14:51;16.33;;;8.32;;
60436;SDS011;46289;51.992;4.498;2022-11-20T00:17:21;14.45;;;7.05;;
60436;SDS011;46289;51.992;4.498;2022-11-20T00:19:50;17.40;;;8.43;;
60436;SDS011;46289;51.992;4.498;2022-11-20T00:22:20;20.65;;;8.43;;
60436;SDS011;46289;51.992;4.498;2022-11-20T00:24:50;16.98;;;8.23;;
60436;SDS011;46289;51.992;4.498;2022-11-20T00:27:20;21.90;;;8.90;;
60436;SDS011;46289;51.992;4.498;2022-11-20T00:29:52;15.98;;;8.32;;
60436;SDS011;46289;51.992;4.498;2022-11-20T00:32:21;16.13;;;7.90;;
60436;SDS011;46289;51.992;4.498;2022-11-20T00:34:51;17.02;;;8.77;;
60436;SDS011;46289;51.992;4.498;2022-11-20T00:37:21;15.77;;;8.88;;
60436;SDS011;46289;51.992;4.498;2022-11-20T00:39:50;15.07;;;8.70;;
60436;SDS011;46289;51.992;4.498;2022-11-20T00:42:20;14.68;;;7.70;;
60436;SDS011;46289;51.992;4.498;2022-11-20T00:44:52;18.15;;;7.82;;
60436;SDS011;46289;51.992;4.498;2022-11-20T00:47:22;18.58;;;8.45;;
60436;SDS011;46289;51.992;4.498;2022-11-20T00:49:51;16.48;;;9.68;;
60436;SDS011;46289;51.992;4.498;2022-11-20T00:52:21;16.50;;;9.57;;
60436;SDS011;46289;51.992;4.498;2022-11-20T00:54:51;14.18;;;8.00;;
60436;SDS011;46289;51.992;4.498;2022-11-20T00:57:20;16.58;;;8.88;;
60436;SDS011;46289;51.992;4.498;2022-11-20T00:59:52;18.10;;;7.95;;
60436;SDS011;46289;51.992;4.498;2022-11-20T01:02:22;20.33;;;8.95;;
60436;SDS011;46289;51.992;4.498;2022-11-20T01:04:52;15.90;;;8.07;;
60436;SDS011;46289;51.992;4.498;2022-11-20T01:07:21;19.05;;;8.50;;
60436;SDS011;46289;51.992;4.498;2022-11-20T01:09:51;15.00;;;8.07;;
60436;SDS011;46289;51.992;4.498;2022-11-20T01:12:20;15.48;;;7.82;;
60436;SDS011;46289;51.992;4.498;2022-11-20T01:14:53;18.83;;;8.88;;
60436;SDS011;46289;51.992;4.498;2022-11-20T01:17:22;16.17;;;8.20;;
60436;SDS011;46289;51.992;4.498;2022-11-20T01:19:52;15.25;;;8.50;;
60436;SDS011;46289;51.992;4.498;2022-11-20T01:22:21;17.27;;;9.07;;
60436;SDS011;46289;51.992;4.498;2022-11-20T01:24:51;15.65;;;8.27;;
60436;SDS011;46289;51.992;4.498;2022-11-20T01:27:21;16.60;;;9.80;;
60436;SDS011;46289;51.992;4.498;2022-11-20T01:29:53;16.25;;;7.88;;
60436;SDS011;46289;51.992;4.498;2022-11-20T01:32:26;15.93;;;7.90;;
60436;SDS011;46289;51.992;4.498;2022-11-20T01:34:56;19.83;;;9.27;;
60436;SDS011;46289;51.992;4.498;2022-11-20T01:37:25;20.25;;;9.05;;
60436;SDS011;46289;51.992;4.498;2022-11-20T01:39:55;17.35;;;8.57;;
60436;SDS011;46289;51.992;4.498;2022-11-20T01:42:25;17.73;;;10.05;;
60436;SDS011;46289;51.992;4.498;2022-11-20T01:48:09;18.42;;;9.45;;
60436;SDS011;46289;51.992;4.498;2022-11-20T01:50:40;18.52;;;9.93;;
60436;SDS011;46289;51.992;4.498;2022-11-20T01:53:12;20.90;;;9.30;;
60436;SDS011;46289;51.992;4.498;2022-11-20T01:55:47;18.95;;;9.85;;
60436;SDS011;46289;51.992;4.498;2022-11-20T01:58:20;20.23;;;10.02;;
60436;SDS011;46289;51.992;4.498;2022-11-20T02:00:53;17.08;;;9.05;;
60436;SDS011;46289;51.992;4.498;2022-11-20T02:03:26;18.58;;;10.88;;
60436;SDS011;46289;51.992;4.498;2022-11-20T02:05:59;19.08;;;8.15;;
60436;SDS011;46289;51.992;4.498;2022-11-20T02:08:34;16.60;;;9.30;;
60436;SDS011;46289;51.992;4.498;2022-11-20T02:11:04;16.45;;;8.60;;
60436;SDS011;46289;51.992;4.498;2022-11-20T02:13:34;15.52;;;8.93;;
60436;SDS011;46289;51.992;4.498;2022-11-20T02:16:12;19.60;;;9.10;;
60436;SDS011;46289;51.992;4.498;2022-11-20T02:18:46;21.10;;;8.93;;
60436;SDS011;46289;51.992;4.498;2022-11-20T02:24:11;17.92;;;8.68;;
60436;SDS011;46289;51.992;4.498;2022-11-20T02:26:44;17.38;;;8.60;;
60436;SDS011;46289;51.992;4.498;2022-11-20T02:29:19;18.40;;;9.30;;
60436;SDS011;46289;51.992;4.498;2022-11-20T02:31:55;18.27;;;8.93;;
60436;SDS011;46289;51.992;4.498;2022-11-20T02:34:27;17.35;;;8.95;;
60436;SDS011;46289;51.992;4.498;2022-11-20T02:36:56;13.65;;;7.93;;
60436;SDS011;46289;51.992;4.498;2022-11-20T02:39:30;20.48;;;10.05;;
60436;SDS011;46289;51.992;4.498;2022-11-20T02:42:00;20.08;;;10.68;;
60436;SDS011;46289;51.992;4.498;2022-11-20T02:44:31;23.75;;;10.38;;
60436;SDS011;46289;51.992;4.498;2022-11-20T02:47:01;17.10;;;8.98;;
60436;SDS011;46289;51.992;4.498;2022-11-20T02:49:30;17.27;;;8.45;;
60436;SDS011;46289;51.992;4.498;2022-11-20T02:52:00;18.15;;;9.23;;
60436;SDS011;46289;51.992;4.498;2022-11-20T02:54:33;15.95;;;9.35;;
60436;SDS011;46289;51.992;4.498;2022-11-20T02:57:03;20.67;;;10.20;;
60436;SDS011;46289;51.992;4.498;2022-11-20T02:59:33;19.30;;;9.95;;
60436;SDS011;46289;51.992;4.498;2022-11-20T03:02:03;19.17;;;9.02;;
60436;SDS011;46289;51.992;4.498;2022-11-20T03:04:32;22.00;;;9.75;;
60436;SDS011;46289;51.992;4.498;2022-11-20T03:07:02;19.33;;;10.25;;
60436;SDS011;46289;51.992;4.498;2022-11-20T03:09:35;17.33;;;8.63;;
60436;SDS011;46289;51.992;4.498;2022-11-20T03:12:05;15.50;;;8.83;;
60436;SDS011;46289;51.992;4.498;2022-11-20T03:14:36;16.35;;;9.50;;
60436;SDS011;46289;51.992;4.498;2022-11-20T03:17:05;16.83;;;9.05;;
60436;SDS011;46289;51.992;4.498;2022-11-20T03:19:35;29.13;;;11.65;;
60436;SDS011;46289;51.992;4.498;2022-11-20T03:22:05;20.45;;;10.23;;
60436;SDS011;46289;51.992;4.498;2022-11-20T03:24:38;16.55;;;8.23;;
60436;SDS011;46289;51.992;4.498;2022-11-20T03:27:07;20.63;;;10.25;;
60436;SDS011;46289;51.992;4.498;2022-11-20T03:29:37;14.68;;;7.82;;
60436;SDS011;46289;51.992;4.498;2022-11-20T03:32:06;20.00;;;9.65;;
60436;SDS011;46289;51.992;4.498;2022-11-20T03:34:36;15.18;;;8.82;;
60436;SDS011;46289;51.992;4.498;2022-11-20T03:37:06;20.70;;;8.75;;
60436;SDS011;46289;51.992;4.498;2022-11-20T03:39:38;19.38;;;10.90;;
60436;SDS011;46289;51.992;4.498;2022-11-20T03:42:08;14.50;;;8.55;;
60436;SDS011;46289;51.992;4.498;2022-11-20T03:44:57;17.83;;;9.50;;
60436;SDS011;46289;51.992;4.498;2022-11-20T03:47:27;18.95;;;9.70;;
60436;SDS011;46289;51.992;4.498;2022-11-20T03:49:57;16.67;;;8.18;;
60436;SDS011;46289;51.992;4.498;2022-11-20T03:52:26;19.42;;;9.75;;
60436;SDS011;46289;51.992;4.498;2022-11-20T03:54:58;16.42;;;9.15;;
60436;SDS011;46289;51.992;4.498;2022-11-20T03:57:28;16.40;;;9.13;;
60436;SDS011;46289;51.992;4.498;2022-11-20T03:59:58;18.83;;;9.35;;
60436;SDS011;46289;51.992;4.498;2022-11-20T04:02:28;20.23;;;9.60;;
60436;SDS011;46289;51.992;4.498;2022-11-20T04:04:58;20.08;;;10.18;;
60436;SDS011;46289;51.992;4.498;2022-11-20T04:07:27;17.92;;;8.68;;
60436;SDS011;46289;51.992;4.498;2022-11-20T04:10:00;21.80;;;9.95;;
60436;SDS011;46289;51.992;4.498;2022-11-20T04:12:31;21.02;;;10.48;;
60436;SDS011;46289;51.992;4.498;2022-11-20T04:15:01;20.63;;;10.40;;
60436;SDS011;46289;51.992;4.498;2022-11-20T04:17:31;22.40;;;11.32;;
60436;SDS011;46289;51.992;4.498;2022-11-20T04:20:01;26.00;;;11.80;;
60436;SDS011;46289;51.992;4.498;2022-11-20T04:22:31;22.02;;;10.93;;
60436;SDS011;46289;51.992;4.498;2022-11-20T04:25:04;21.25;;;10.45;;
60436;SDS011;46289;51.992;4.498;2022-11-20T04:27:36;21.83;;;10.32;;
60436;SDS011;46289;51.992;4.498;2022-11-20T04:30:06;18.30;;;11.15;;
60436;SDS011;46289;51.992;4.498;2022-11-20T04:32:37;17.05;;;10.35;;
60436;SDS011;46289;51.992;4.498;2022-11-20T04:35:07;20.58;;;10.60;;
60436;SDS011;46289;51.992;4.498;2022-11-20T04:37:36;18.00;;;10.57;;
60436;SDS011;46289;51.992;4.498;2022-11-20T04:40:09;20.17;;;9.93;;
60436;SDS011;46289;51.992;4.498;2022-11-20T04:45:09;22.83;;;9.30;;
60436;SDS011;46289;51.992;4.498;2022-11-20T04:47:39;23.15;;;10.32;;
60436;SDS011;46289;51.992;4.498;2022-11-20T04:50:09;23.17;;;10.95;;
60436;SDS011;46289;51.992;4.498;2022-11-20T04:52:38;19.35;;;10.05;;
60436;SDS011;46289;51.992;4.498;2022-11-20T04:55:11;22.85;;;10.50;;
60436;SDS011;46289;51.992;4.498;2022-11-20T04:57:40;20.20;;;9.70;;
60436;SDS011;46289;51.992;4.498;2022-11-20T05:00:11;17.95;;;9.52;;
60436;SDS011;46289;51.992;4.498;2022-11-20T05:02:41;20.50;;;9.88;;
60436;SDS011;46289;51.992;4.498;2022-11-20T05:05:11;19.55;;;10.00;;
60436;SDS011;46289;51.992;4.498;2022-11-20T05:07:41;20.08;;;10.23;;
60436;SDS011;46289;51.992;4.498;2022-11-20T05:10:13;20.25;;;10.48;;
60436;SDS011;46289;51.992;4.498;2022-11-20T05:12:43;19.92;;;9.95;;
60436;SDS011;46289;51.992;4.498;2022-11-20T05:15:13;20.15;;;9.70;;
60436;SDS011;46289;51.992;4.498;2022-11-20T05:17:46;18.38;;;9.60;;
60436;SDS011;46289;51.992;4.498;2022-11-20T05:20:16;18.45;;;8.93;;
60436;SDS011;46289;51.992;4.498;2022-11-20T05:22:46;19.55;;;11.10;;
60436;SDS011;46289;51.992;4.498;2022-11-20T05:25:18;17.00;;;9.43;;
60436;SDS011;46289;51.992;4.498;2022-11-20T05:27:48;20.83;;;9.57;;
60436;SDS011;46289;51.992;4.498;2022-11-20T05:30:18;16.20;;;8.63;;
60436;SDS011;46289;51.992;4.498;2022-11-20T05:32:47;22.25;;;11.27;;
60436;SDS011;46289;51.992;4.498;2022-11-20T05:35:17;21.10;;;10.07;;
60436;SDS011;46289;51.992;4.498;2022-11-20T05:37:47;23.63;;;11.02;;
60436;SDS011;46289;51.992;4.498;2022-11-20T05:40:19;17.60;;;11.30;;
60436;SDS011;46289;51.992;4.498;2022-11-20T05:42:49;19.85;;;10.25;;
60436;SDS011;46289;51.992;4.498;2022-11-20T05:45:18;19.45;;;9.13;;
60436;SDS011;46289;51.992;4.498;2022-11-20T05:47:48;23.58;;;10.10;;
60436;SDS011;46289;51.992;4.498;2022-11-20T05:50:18;19.35;;;9.80;;
60436;SDS011;46289;51.992;4.498;2022-11-20T05:52:47;17.05;;;10.05;;
60436;SDS011;46289;51.992;4.498;2022-11-20T05:55:20;20.02;;;10.80;;
60436;SDS011;46289;51.992;4.498;2022-11-20T05:57:49;21.95;;;9.57;;
60436;SDS011;46289;51.992;4.498;2022-11-20T06:00:21;20.88;;;9.63;;
60436;SDS011;46289;51.992;4.498;2022-11-20T06:02:50;21.58;;;10.32;;
60436;SDS011;46289;51.992;4.498;2022-11-20T06:05:20;19.73;;;8.73;;
60436;SDS011;46289;51.992;4.498;2022-11-20T06:07:50;19.40;;;9.75;;
60436;SDS011;46289;51.992;4.498;2022-11-20T06:10:22;28.50;;;11.52;;
60436;SDS011;46289;51.992;4.498;2022-11-20T06:12:52;20.60;;;9.85;;
60436;SDS011;46289;51.992;4.498;2022-11-20T06:15:21;24.13;;;11.88;;
60436;SDS011;46289;51.992;4.498;2022-11-20T06:17:51;18.17;;;11.38;;
60436;SDS011;46289;51.992;4.498;2022-11-20T06:20:21;17.92;;;9.23;;
60436;SDS011;46289;51.992;4.498;2022-11-20T06:22:51;19.20;;;10.15;;
60436;SDS011;46289;51.992;4.498;2022-11-20T06:25:23;17.33;;;9.23;;
60436;SDS011;46289;51.992;4.498;2022-11-20T06:27:53;17.52;;;9.05;;
60436;SDS011;46289;51.992;4.498;2022-11-20T06:30:22;19.60;;;10.80;;
60436;SDS011;46289;51.992;4.498;2022-11-20T06:32:52;23.73;;;11.60;;
60436;SDS011;46289;51.992;4.498;2022-11-20T06:35:22;20.92;;;9.98;;
60436;SDS011;46289;51.992;4.498;2022-11-20T06:37:51;20.88;;;10.18;;
60436;SDS011;46289;51.992;4.498;2022-11-20T06:40:24;19.42;;;10.40;;
60436;SDS011;46289;51.992;4.498;2022-11-20T06:42:53;20.55;;;10.93;;
60436;SDS011;46289;51.992;4.498;2022-11-20T06:45:23;23.02;;;10.30;;
60436;SDS011;46289;51.992;4.498;2022-11-20T06:47:53;22.05;;;10.52;;
60436;SDS011;46289;51.992;4.498;2022-11-20T06:50:22;20.73;;;10.60;;
60436;SDS011;46289;51.992;4.498;2022-11-20T06:52:52;21.00;;;10.35;;
60436;SDS011;46289;51.992;4.498;2022-11-20T06:55:24;23.38;;;9.63;;
60436;SDS011;46289;51.992;4.498;2022-11-20T06:57:54;19.23;;;10.80;;
60436;SDS011;46289;51.992;4.498;2022-11-20T07:00:23;21.45;;;9.98;;
60436;SDS011;46289;51.992;4.498;2022-11-20T07:02:53;20.45;;;11.32;;
60436;SDS011;46289;51.992;4.498;2022-11-20T07:05:23;17.15;;;10.40;;
60436;SDS011;46289;51.992;4.498;2022-11-20T07:07:55;22.90;;;11.77;;
60436;SDS011;46289;51.992;4.498;2022-11-20T07:10:27;23.95;;;10.93;;
60436;SDS011;46289;51.992;4.498;2022-11-20T07:12:57;22.10;;;11.45;;
60436;SDS011;46289;51.992;4.498;2022-11-20T07:15:26;25.20;;;12.02;;
60436;SDS011;46289;51.992;4.498;2022-11-20T07:17:58;21.98;;;12.30;;
60436;SDS011;46289;51.992;4.498;2022-11-20T07:20:28;22.05;;;10.77;;
60436;SDS011;46289;51.992;4.498;2022-11-20T07:22:58;20.77;;;10.13;;
60436;SDS011;46289;51.992;4.498;2022-11-20T07:25:30;21.80;;;10.88;;
60436;SDS011;46289;51.992;4.498;2022-11-20T07:28:00;20.77;;;11.23;;
60436;SDS011;46289;51.992;4.498;2022-11-20T07:30:30;23.17;;;10.35;;
60436;SDS011;46289;51.992;4.498;2022-11-20T07:33:00;22.75;;;11.38;;
60436;SDS011;46289;51.992;4.498;2022-11-20T07:35:29;22.88;;;11.05;;
60436;SDS011;46289;51.992;4.498;2022-11-20T07:37:59;23.05;;;12.40;;
60436;SDS011;46289;51.992;4.498;2022-11-20T07:40:31;22.60;;;10.77;;
60436;SDS011;46289;51.992;4.498;2022-11-20T07:43:01;27.48;;;12.50;;
60436;SDS011;46289;51.992;4.498;2022-11-20T07:45:30;24.02;;;12.25;;
60436;SDS011;46289;51.992;4.498;2022-11-20T07:48:00;28.52;;;11.88;;
60436;SDS011;46289;51.992;4.498;2022-11-20T07:50:30;25.08;;;13.18;;
60436;SDS011;46289;51.992;4.498;2022-11-20T07:53:00;25.95;;;12.05;;
60436;SDS011;46289;51.992;4.498;2022-11-20T07:55:34;23.38;;;11.82;;
60436;SDS011;46289;51.992;4.498;2022-11-20T07:58:03;23.10;;;11.73;;
60436;SDS011;46289;51.992;4.498;2022-11-20T08:00:33;30.70;;;12.60;;
60436;SDS011;46289;51.992;4.498;2022-11-20T08:03:03;26.45;;;12.07;;
60436;SDS011;46289;51.992;4.498;2022-11-20T08:05:33;25.65;;;13.05;;
60436;SDS011;46289;51.992;4.498;2022-11-20T08:08:03;22.55;;;11.68;;
60436;SDS011;46289;51.992;4.498;2022-11-20T08:10:36;22.77;;;12.30;;
60436;SDS011;46289;51.992;4.498;2022-11-20T08:13:06;22.75;;;12.40;;
60436;SDS011;46289;51.992;4.498;2022-11-20T08:15:48;24.73;;;12.70;;
60436;SDS011;46289;51.992;4.498;2022-11-20T08:18:19;29.35;;;13.18;;
60436;SDS011;46289;51.992;4.498;2022-11-20T08:20:57;25.38;;;14.57;;
60436;SDS011;46289;51.992;4.498;2022-11-20T08:23:27;26.52;;;12.77;;
60436;SDS011;46289;51.992;4.498;2022-11-20T08:25:59;27.33;;;13.45;;
60436;SDS011;46289;51.992;4.498;2022-11-20T08:28:28;23.23;;;13.90;;
60436;SDS011;46289;51.992;4.498;2022-11-20T08:30:58;29.88;;;12.80;;
60436;SDS011;46289;51.992;4.498;2022-11-20T08:33:29;25.70;;;13.48;;
60436;SDS011;46289;51.992;4.498;2022-11-20T08:35:59;26.48;;;12.50;;
60436;SDS011;46289;51.992;4.498;2022-11-20T08:38:29;29.55;;;13.70;;
60436;SDS011;46289;51.992;4.498;2022-11-20T08:41:02;27.70;;;14.27;;
60436;SDS011;46289;51.992;4.498;2022-11-20T08:43:46;24.55;;;12.73;;
60436;SDS011;46289;51.992;4.498;2022-11-20T08:46:15;30.23;;;13.90;;
60436;SDS011;46289;51.992;4.498;2022-11-20T08:48:45;31.98;;;15.48;;
60436;SDS011;46289;51.992;4.498;2022-11-20T08:51:15;26.33;;;13.13;;
60436;SDS011;46289;51.992;4.498;2022-11-20T08:53:45;28.33;;;13.90;;
60436;SDS011;46289;51.992;4.498;2022-11-20T08:56:18;21.83;;;12.27;;
60436;SDS011;46289;51.992;4.498;2022-11-20T08:58:49;27.88;;;14.65;;
60436;SDS011;46289;51.992;4.498;2022-11-20T09:01:39;27.90;;;14.52;;
60436;SDS011;46289;51.992;4.498;2022-11-20T09:04:08;26.55;;;14.38;;
60436;SDS011;46289;51.992;4.498;2022-11-20T09:06:40;31.45;;;14.90;;
60436;SDS011;46289;51.992;4.498;2022-11-20T09:09:10;22.95;;;13.27;;
60436;SDS011;46289;51.992;4.498;2022-11-20T09:11:42;27.38;;;15.18;;
60436;SDS011;46289;51.992;4.498;2022-11-20T09:14:12;29.48;;;17.42;;
60436;SDS011;46289;51.992;4.498;2022-11-20T09:16:42;31.00;;;16.73;;
60436;SDS011;46289;51.992;4.498;2022-11-20T09:19:13;27.90;;;15.85;;
60436;SDS011;46289;51.992;4.498;2022-11-20T09:22:01;31.95;;;15.00;;
60436;SDS011;46289;51.992;4.498;2022-11-20T09:24:31;27.08;;;14.73;;
60436;SDS011;46289;51.992;4.498;2022-11-20T09:27:06;25.52;;;14.98;;
60436;SDS011;46289;51.992;4.498;2022-11-20T09:29:36;29.50;;;16.13;;
60436;SDS011;46289;51.992;4.498;2022-11-20T09:32:06;28.65;;;15.43;;
60436;SDS011;46289;51.992;4.498;2022-11-20T09:34:36;27.80;;;13.05;;
60436;SDS011;46289;51.992;4.498;2022-11-20T09:37:05;36.72;;;19.30;;
60436;SDS011;46289;51.992;4.498;2022-11-20T09:39:35;27.33;;;15.98;;
60436;SDS011;46289;51.992;4.498;2022-11-20T09:42:14;30.02;;;16.40;;
60436;SDS011;46289;51.992;4.498;2022-11-20T09:44:58;39.53;;;16.70;;
60436;SDS011;46289;51.992;4.498;2022-11-20T09:47:48;32.47;;;16.30;;
60436;SDS011;46289;51.992;4.498;2022-11-20T09:50:29;29.95;;;16.17;;
60436;SDS011;46289;51.992;4.498;2022-11-20T09:53:09;35.30;;;16.02;;
60436;SDS011;46289;51.992;4.498;2022-11-20T09:55:42;30.40;;;16.92;;
60436;SDS011;46289;51.992;4.498;2022-11-20T09:58:19;34.72;;;16.52;;
60436;SDS011;46289;51.992;4.498;2022-11-20T10:00:59;33.25;;;16.48;;
60436;SDS011;46289;51.992;4.498;2022-11-20T10:03:37;37.28;;;16.88;;
60436;SDS011;46289;51.992;4.498;2022-11-20T10:06:12;35.67;;;17.40;;
60436;SDS011;46289;51.992;4.498;2022-11-20T10:08:47;36.10;;;17.42;;
60436;SDS011;46289;51.992;4.498;2022-11-20T10:11:27;36.22;;;18.30;;
60436;SDS011;46289;51.992;4.498;2022-11-20T10:14:09;35.40;;;16.90;;
60436;SDS011;46289;51.992;4.498;2022-11-20T10:16:50;28.05;;;14.20;;
60436;SDS011;46289;51.992;4.498;2022-11-20T10:19:36;34.95;;;15.63;;
60436;SDS011;46289;51.992;4.498;2022-11-20T10:22:28;37.60;;;17.35;;
60436;SDS011;46289;51.992;4.498;2022-11-20T10:25:08;36.50;;;18.55;;
60436;SDS011;46289;51.992;4.498;2022-11-20T10:30:43;26.75;;;14.65;;
60436;SDS011;46289;51.992;4.498;2022-11-20T10:33:15;30.13;;;13.18;;
60436;SDS011;46289;51.992;4.498;2022-11-20T10:35:49;31.35;;;16.52;;
60436;SDS011;46289;51.992;4.498;2022-11-20T10:38:23;30.23;;;16.20;;
60436;SDS011;46289;51.992;4.498;2022-11-20T10:40:57;37.03;;;16.05;;
60436;SDS011;46289;51.992;4.498;2022-11-20T10:43:42;32.70;;;17.13;;
60436;SDS011;46289;51.992;4.498;2022-11-20T10:46:17;32.00;;;17.08;;
60436;SDS011;46289;51.992;4.498;2022-11-20T10:48:49;29.27;;;15.00;;
60436;SDS011;46289;51.992;4.498;2022-11-20T10:51:25;32.70;;;15.43;;
60436;SDS011;46289;51.992;4.498;2022-11-20T10:54:08;34.38;;;16.08;;
60436;SDS011;46289;51.992;4.498;2022-11-20T10:56:50;40.35;;;17.67;;
60436;SDS011;46289;51.992;4.498;2022-11-20T11:02:20;34.95;;;17.40;;
60436;SDS011;46289;51.992;4.498;2022-11-20T11:04:51;44.40;;;18.63;;
60436;SDS011;46289;51.992;4.498;2022-11-20T11:07:23;33.83;;;16.85;;
60436;SDS011;46289;51.992;4.498;2022-11-20T11:09:57;33.50;;;16.90;;
60436;SDS011;46289;51.992;4.498;2022-11-20T11:12:27;38.25;;;17.33;;
60436;SDS011;46289;51.992;4.498;2022-11-20T11:14:57;42.65;;;17.85;;
60436;SDS011;46289;51.992;4.498;2022-11-20T11:17:33;30.90;;;16.90;;
60436;SDS011;46289;51.992;4.498;2022-11-20T11:20:05;41.38;;;20.80;;
60436;SDS011;46289;51.992;4.498;2022-11-20T11:22:44;40.22;;;19.70;;
60436;SDS011;46289;51.992;4.498;2022-11-20T11:25:23;38.20;;;18.77;;
60436;SDS011;46289;51.992;4.498;2022-11-20T11:27:56;34.83;;;18.13;;
60436;SDS011;46289;51.992;4.498;2022-11-20T11:30:29;48.30;;;21.25;;
60436;SDS011;46289;51.992;4.498;2022-11-20T11:33:18;41.38;;;20.95;;
60436;SDS011;46289;51.992;4.498;2022-11-20T11:35:50;40.85;;;19.15;;
60436;SDS011;46289;51.992;4.498;2022-11-20T11:40:57;39.50;;;18.75;;
60436;SDS011;46289;51.992;4.498;2022-11-20T11:43:28;41.60;;;20.00;;
60436;SDS011;46289;51.992;4.498;2022-11-20T11:49:11;62.83;;;32.53;;
60436;SDS011;46289;51.992;4.498;2022-11-20T11:52:21;42.20;;;19.73;;
60436;SDS011;46289;51.992;4.498;2022-11-20T11:55:14;43.83;;;19.30;;
60436;SDS011;46289;51.992;4.498;2022-11-20T11:58:19;50.42;;;21.35;;
60436;SDS011;46289;51.992;4.498;2022-11-20T12:01:29;47.50;;;20.30;;
60436;SDS011;46289;51.992;4.498;2022-11-20T12:04:14;43.97;;;21.07;;
60436;SDS011;46289;51.992;4.498;2022-11-20T12:07:10;45.08;;;20.98;;
60436;SDS011;46289;51.992;4.498;2022-11-20T12:10:21;48.33;;;20.98;;
60436;SDS011;46289;51.992;4.498;2022-11-20T12:13:04;46.80;;;21.20;;
60436;SDS011;46289;51.992;4.498;2022-11-20T12:16:14;48.05;;;22.30;;
60436;SDS011;46289;51.992;4.498;2022-11-20T12:19:02;44.00;;;20.98;;
60436;SDS011;46289;51.992;4.498;2022-11-20T12:21:55;48.28;;;22.42;;
60436;SDS011;46289;51.992;4.498;2022-11-20T12:25:08;49.60;;;21.55;;
60436;SDS011;46289;51.992;4.498;2022-11-20T12:28:23;48.97;;;22.55;;
60436;SDS011;46289;51.992;4.498;2022-11-20T12:31:59;44.55;;;20.00;;
60436;SDS011;46289;51.992;4.498;2022-11-20T12:37:53;43.00;;;19.52;;
60436;SDS011;46289;51.992;4.498;2022-11-20T12:40:59;35.58;;;16.38;;
60436;SDS011;46289;51.992;4.498;2022-11-20T12:47:50;52.08;;;23.58;;
60436;SDS011;46289;51.992;4.498;2022-11-20T12:53:59;45.30;;;20.87;;
60436;SDS011;46289;51.992;4.498;2022-11-20T12:57:32;50.03;;;23.00;;
60436;SDS011;46289;51.992;4.498;2022-11-20T13:00:28;49.05;;;23.17;;
60436;SDS011;46289;51.992;4.498;2022-11-20T13:03:46;51.35;;;24.10;;
60436;SDS011;46289;51.992;4.498;2022-11-20T13:06:49;53.63;;;24.88;;
60436;SDS011;46289;51.992;4.498;2022-11-20T13:10:11;41.70;;;21.25;;
60436;SDS011;46289;51.992;4.498;2022-11-20T13:13:28;56.90;;;26.70;;
60436;SDS011;46289;51.992;4.498;2022-11-20T13:16:41;45.90;;;21.95;;
60436;SDS011;46289;51.992;4.498;2022-11-20T13:19:52;52.58;;;24.42;;
60436;SDS011;46289;51.992;4.498;2022-11-20T13:22:28;55.65;;;22.77;;
60436;SDS011;46289;51.992;4.498;2022-11-20T13:25:21;51.58;;;22.35;;
60436;SDS011;46289;51.992;4.498;2022-11-20T13:27:52;51.78;;;24.88;;
60436;SDS011;46289;51.992;4.498;2022-11-20T13:30:23;45.95;;;21.83;;
60436;SDS011;46289;51.992;4.498;2022-11-20T13:32:55;51.45;;;21.25;;
60436;SDS011;46289;51.992;4.498;2022-11-20T13:35:28;56.75;;;23.58;;
60436;SDS011;46289;51.992;4.498;2022-11-20T13:38:03;59.03;;;22.95;;
60436;SDS011;46289;51.992;4.498;2022-11-20T13:40:37;51.47;;;21.85;;
60436;SDS011;46289;51.992;4.498;2022-11-20T13:43:21;50.25;;;21.73;;
60436;SDS011;46289;51.992;4.498;2022-11-20T13:48:58;47.67;;;19.95;;
60436;SDS011;46289;51.992;4.498;2022-11-20T13:51:37;51.22;;;22.70;;
60436;SDS011;46289;51.992;4.498;2022-11-20T13:54:26;52.67;;;25.27;;
60436;SDS011;46289;51.992;4.498;2022-11-20T13:57:26;55.22;;;22.52;;
60436;SDS011;46289;51.992;4.498;2022-11-20T14:00:11;62.05;;;26.15;;
60436;SDS011;46289;51.992;4.498;2022-11-20T14:03:06;35.10;;;19.42;;
60436;SDS011;46289;51.992;4.498;2022-11-20T14:08:23;56.92;;;22.80;;
60436;SDS011;46289;51.992;4.498;2022-11-20T14:11:11;54.35;;;21.65;;
60436;SDS011;46289;51.992;4.498;2022-11-20T14:13:54;45.55;;;18.10;;
60436;SDS011;46289;51.992;4.498;2022-11-20T14:16:30;55.75;;;21.73;;
60436;SDS011;46289;51.992;4.498;2022-11-20T14:22:07;50.72;;;19.92;;
60436;SDS011;46289;51.992;4.498;2022-11-20T14:24:47;55.42;;;22.90;;
60436;SDS011;46289;51.992;4.498;2022-11-20T14:27:20;56.60;;;25.08;;
60436;SDS011;46289;51.992;4.498;2022-11-20T14:29:50;53.15;;;23.77;;
60436;SDS011;46289;51.992;4.498;2022-11-20T14:32:22;63.42;;;24.85;;
60436;SDS011;46289;51.992;4.498;2022-11-20T14:34:58;63.92;;;26.60;;
60436;SDS011;46289;51.992;4.498;2022-11-20T14:37:33;58.00;;;23.95;;
60436;SDS011;46289;51.992;4.498;2022-11-20T14:40:21;60.80;;;25.75;;
60436;SDS011;46289;51.992;4.498;2022-11-20T14:43:00;48.92;;;23.95;;
60436;SDS011;46289;51.992;4.498;2022-11-20T14:45:31;70.22;;;26.25;;
60436;SDS011;46289;51.992;4.498;2022-11-20T14:48:01;66.10;;;25.73;;
60436;SDS011;46289;51.992;4.498;2022-11-20T14:50:32;53.00;;;25.52;;
60436;SDS011;46289;51.992;4.498;2022-11-20T14:53:04;45.97;;;20.02;;
60436;SDS011;46289;51.992;4.498;2022-11-20T14:55:34;58.60;;;24.48;;
60436;SDS011;46289;51.992;4.498;2022-11-20T14:58:20;66.43;;;24.73;;
60436;SDS011;46289;51.992;4.498;2022-11-20T15:00:54;70.40;;;25.42;;
60436;SDS011;46289;51.992;4.498;2022-11-20T15:03:31;65.85;;;25.00;;
60436;SDS011;46289;51.992;4.498;2022-11-20T15:06:02;51.28;;;22.92;;
60436;SDS011;46289;51.992;4.498;2022-11-20T15:08:33;59.08;;;23.65;;
60436;SDS011;46289;51.992;4.498;2022-11-20T15:11:14;50.88;;;21.77;;
60436;SDS011;46289;51.992;4.498;2022-11-20T15:13:49;70.15;;;26.15;;
60436;SDS011;46289;51.992;4.498;2022-11-20T15:16:19;64.40;;;25.25;;
60436;SDS011;46289;51.992;4.498;2022-11-20T15:18:50;56.88;;;21.90;;
60436;SDS011;46289;51.992;4.498;2022-11-20T15:21:20;68.97;;;27.27;;
60436;SDS011;46289;51.992;4.498;2022-11-20T15:23:50;49.10;;;20.52;;
60436;SDS011;46289;51.992;4.498;2022-11-20T15:26:22;56.97;;;23.17;;
60436;SDS011;46289;51.992;4.498;2022-11-20T15:28:57;55.75;;;25.50;;
60436;SDS011;46289;51.992;4.498;2022-11-20T15:31:26;57.00;;;25.00;;
60436;SDS011;46289;51.992;4.498;2022-11-20T15:33:57;62.92;;;27.20;;
60436;SDS011;46289;51.992;4.498;2022-11-20T15:36:27;64.28;;;26.10;;
60436;SDS011;46289;51.992;4.498;2022-11-20T15:38:56;54.67;;;26.75;;
60436;SDS011;46289;51.992;4.498;2022-11-20T15:41:26;51.80;;;22.05;;
60436;SDS011;46289;51.992;4.498;2022-11-20T15:43:58;60.17;;;25.60;;
60436;SDS011;46289;51.992;4.498;2022-11-20T15:46:29;50.75;;;24.20;;
60436;SDS011;46289;51.992;4.498;2022-11-20T15:49:04;62.35;;;23.83;;
60436;SDS011;46289;51.992;4.498;2022-11-20T15:51:36;56.92;;;24.92;;